sensor_id;sensor_type;location;lat;lon;timestamp;P1;durP1;ratioP1;P2;durP2;ratioP2
9667;SDS011;4872;48.316;10.650;2024-01-30T05:07:12;13.07;;;10.90;;
9667;SDS011;4872;48.316;10.650;2024-01-30T05:09:39;11.77;;;10.00;;
9667;SDS011;4872;48.316;10.650;2024-01-30T05:12:06;13.00;;;10.93;;
9667;SDS011;4872;48.316;10.650;2024-01-30T05:14:33;13.23;;;10.67;;
9667;SDS011;4872;48.316;10.650;2024-01-30T05:17:00;11.60;;;10.17;;
9667;SDS011;4872;48.316;10.650;2024-01-30T05:19:28;14.53;;;10.87;;
9667;SDS011;4872;48.316;10.650;2024-01-30T05:21:54;14.70;;;11.70;;
9667;SDS011;4872;48.316;10.650;2024-01-30T05:24:22;13.83;;;11.03;;
9667;SDS011;4872;48.316;10.650;2024-01-30T05:26:49;13.43;;;10.77;;
9667;SDS011;4872;48.316;10.650;2024-01-30T05:29:16;13.13;;;10.97;;
9667;SDS011;4872;48.316;10.650;2024-01-30T05:31:43;13.30;;;10.93;;
9667;SDS011;4872;48.316;10.650;2024-01-30T05:34:10;13.70;;;10.73;;
9667;SDS011;4872;48.316;10.650;2024-01-30T05:36:36;13.80;;;11.17;;
9667;SDS011;4872;48.316;10.650;2024-01-30T05:39:03;14.30;;;11.67;;
9667;SDS011;4872;48.316;10.650;2024-01-30T05:41:31;12.83;;;10.60;;
9667;SDS011;4872;48.316;10.650;2024-01-30T05:43:58;13.00;;;10.17;;
9667;SDS011;4872;48.316;10.650;2024-01-30T05:46:25;13.30;;;10.87;;
9667;SDS011;4872;48.316;10.650;2024-01-30T05:48:51;12.83;;;10.10;;
9667;SDS011;4872;48.316;10.650;2024-01-30T05:51:18;15.23;;;10.57;;
9667;SDS011;4872;48.316;10.650;2024-01-30T05:53:45;12.07;;;9.80;;
9667;SDS011;4872;48.316;10.650;2024-01-30T05:56:12;12.57;;;10.13;;
9667;SDS011;4872;48.316;10.650;2024-01-30T05:58:40;10.83;;;9.47;;
9667;SDS011;4872;48.316;10.650;2024-01-30T06:01:08;12.77;;;10.10;;
9667;SDS011;4872;48.316;10.650;2024-01-30T06:03:35;10.30;;;9.20;;
9667;SDS011;4872;48.316;10.650;2024-01-30T06:06:02;12.83;;;9.87;;
9667;SDS011;4872;48.316;10.650;2024-01-30T06:08:29;13.70;;;10.03;;
9667;SDS011;4872;48.316;10.650;2024-01-30T06:10:55;14.33;;;10.73;;
9667;SDS011;4872;48.316;10.650;2024-01-30T06:13:22;13.90;;;10.30;;
9667;SDS011;4872;48.316;10.650;2024-01-30T06:15:50;12.70;;;10.23;;
9667;SDS011;4872;48.316;10.650;2024-01-30T06:18:17;15.47;;;10.73;;
9667;SDS011;4872;48.316;10.650;2024-01-30T06:20:44;16.20;;;11.10;;
9667;SDS011;4872;48.316;10.650;2024-01-30T06:23:10;13.83;;;11.17;;
9667;SDS011;4872;48.316;10.650;2024-01-30T06:25:38;15.23;;;10.63;;
9667;SDS011;4872;48.316;10.650;2024-01-30T06:28:04;16.50;;;12.50;;
9667;SDS011;4872;48.316;10.650;2024-01-30T06:30:31;26.13;;;17.00;;
9667;SDS011;4872;48.316;10.650;2024-01-30T06:32:59;24.40;;;15.03;;
9667;SDS011;4872;48.316;10.650;2024-01-30T06:35:26;18.00;;;12.67;;
9667;SDS011;4872;48.316;10.650;2024-01-30T06:37:53;15.30;;;12.77;;
9667;SDS011;4872;48.316;10.650;2024-01-30T06:40:20;26.97;;;16.83;;
9667;SDS011;4872;48.316;10.650;2024-01-30T06:42:47;23.77;;;15.73;;
9667;SDS011;4872;48.316;10.650;2024-01-30T06:45:14;31.50;;;18.83;;
9667;SDS011;4872;48.316;10.650;2024-01-30T06:47:41;31.37;;;20.73;;
9667;SDS011;4872;48.316;10.650;2024-01-30T06:50:09;37.80;;;23.93;;
9667;SDS011;4872;48.316;10.650;2024-01-30T06:52:36;36.53;;;23.97;;
9667;SDS011;4872;48.316;10.650;2024-01-30T06:55:03;36.47;;;24.40;;
9667;SDS011;4872;48.316;10.650;2024-01-30T06:57:30;47.60;;;24.97;;
9667;SDS011;4872;48.316;10.650;2024-01-30T06:59:57;38.13;;;21.83;;
9667;SDS011;4872;48.316;10.650;2024-01-30T07:02:23;47.13;;;28.93;;
9667;SDS011;4872;48.316;10.650;2024-01-30T07:04:50;39.07;;;24.13;;
9667;SDS011;4872;48.316;10.650;2024-01-30T07:07:18;32.33;;;20.93;;
9667;SDS011;4872;48.316;10.650;2024-01-30T07:09:45;27.40;;;16.57;;
9667;SDS011;4872;48.316;10.650;2024-01-30T07:12:14;20.53;;;14.63;;
9667;SDS011;4872;48.316;10.650;2024-01-30T07:14:41;20.33;;;12.87;;
9667;SDS011;4872;48.316;10.650;2024-01-30T07:17:08;16.60;;;12.37;;
9667;SDS011;4872;48.316;10.650;2024-01-30T07:19:35;13.63;;;9.60;;
9667;SDS011;4872;48.316;10.650;2024-01-30T07:22:01;13.50;;;10.00;;
9667;SDS011;4872;48.316;10.650;2024-01-30T07:24:30;9.90;;;8.87;;
9667;SDS011;4872;48.316;10.650;2024-01-30T07:26:56;13.70;;;8.90;;
9667;SDS011;4872;48.316;10.650;2024-01-30T07:29:23;13.00;;;9.63;;
9667;SDS011;4872;48.316;10.650;2024-01-30T07:31:50;11.73;;;8.67;;
9667;SDS011;4872;48.316;10.650;2024-01-30T07:34:17;12.77;;;9.17;;
9667;SDS011;4872;48.316;10.650;2024-01-30T07:36:43;18.77;;;12.73;;
9667;SDS011;4872;48.316;10.650;2024-01-30T07:39:12;16.70;;;12.07;;
9667;SDS011;4872;48.316;10.650;2024-01-30T07:41:40;17.10;;;12.50;;
9667;SDS011;4872;48.316;10.650;2024-01-30T07:44:07;13.90;;;11.63;;
9667;SDS011;4872;48.316;10.650;2024-01-30T07:46:33;14.63;;;11.70;;
9667;SDS011;4872;48.316;10.650;2024-01-30T07:49:00;11.63;;;10.40;;
9667;SDS011;4872;48.316;10.650;2024-01-30T07:51:28;14.40;;;11.10;;
9667;SDS011;4872;48.316;10.650;2024-01-30T07:53:56;14.60;;;10.30;;
9667;SDS011;4872;48.316;10.650;2024-01-30T07:56:23;13.27;;;9.73;;
9667;SDS011;4872;48.316;10.650;2024-01-30T07:58:51;13.80;;;9.20;;
9667;SDS011;4872;48.316;10.650;2024-01-30T08:01:18;9.93;;;8.93;;
9667;SDS011;4872;48.316;10.650;2024-01-30T08:03:45;12.40;;;9.00;;
9667;SDS011;4872;48.316;10.650;2024-01-30T08:06:12;14.47;;;10.30;;
9667;SDS011;4872;48.316;10.650;2024-01-30T08:08:39;13.60;;;10.53;;
9667;SDS011;4872;48.316;10.650;2024-01-30T08:11:05;12.53;;;9.87;;
9667;SDS011;4872;48.316;10.650;2024-01-30T08:13:32;11.20;;;9.40;;
9667;SDS011;4872;48.316;10.650;2024-01-30T08:16:00;12.70;;;9.20;;
9667;SDS011;4872;48.316;10.650;2024-01-30T08:18:27;12.53;;;9.27;;
9667;SDS011;4872;48.316;10.650;2024-01-30T08:20:54;11.80;;;9.17;;
9667;SDS011;4872;48.316;10.650;2024-01-30T08:23:21;10.93;;;9.17;;
9667;SDS011;4872;48.316;10.650;2024-01-30T08:25:47;12.23;;;9.60;;
9667;SDS011;4872;48.316;10.650;2024-01-30T08:28:14;12.03;;;8.83;;
9667;SDS011;4872;48.316;10.650;2024-01-30T08:30:41;11.30;;;8.37;;
9667;SDS011;4872;48.316;10.650;2024-01-30T08:33:09;12.13;;;8.90;;
9667;SDS011;4872;48.316;10.650;2024-01-30T08:35:36;10.13;;;9.13;;
9667;SDS011;4872;48.316;10.650;2024-01-30T08:38:03;14.83;;;10.33;;
9667;SDS011;4872;48.316;10.650;2024-01-30T08:40:30;12.57;;;10.67;;
9667;SDS011;4872;48.316;10.650;2024-01-30T08:42:56;15.07;;;11.23;;
9667;SDS011;4872;48.316;10.650;2024-01-30T08:45:23;11.93;;;10.27;;
9667;SDS011;4872;48.316;10.650;2024-01-30T08:47:50;12.30;;;9.23;;
9667;SDS011;4872;48.316;10.650;2024-01-30T08:50:18;13.10;;;10.87;;
9667;SDS011;4872;48.316;10.650;2024-01-30T08:52:45;13.33;;;10.53;;
9667;SDS011;4872;48.316;10.650;2024-01-30T08:55:12;11.77;;;10.30;;
9667;SDS011;4872;48.316;10.650;2024-01-30T08:57:39;11.27;;;9.33;;
9667;SDS011;4872;48.316;10.650;2024-01-30T09:00:06;10.63;;;8.23;;
9667;SDS011;4872;48.316;10.650;2024-01-30T09:02:34;8.83;;;7.73;;
9667;SDS011;4872;48.316;10.650;2024-01-30T09:05:01;8.77;;;7.40;;
9667;SDS011;4872;48.316;10.650;2024-01-30T09:07:29;8.73;;;7.63;;
9667;SDS011;4872;48.316;10.650;2024-01-30T09:09:56;9.37;;;7.60;;
9667;SDS011;4872;48.316;10.650;2024-01-30T09:12:23;9.93;;;7.03;;
9667;SDS011;4872;48.316;10.650;2024-01-30T09:14:49;8.70;;;7.63;;
9667;SDS011;4872;48.316;10.650;2024-01-30T09:17:16;9.00;;;7.67;;
9667;SDS011;4872;48.316;10.650;2024-01-30T09:19:43;8.20;;;7.37;;
9667;SDS011;4872;48.316;10.650;2024-01-30T09:22:10;9.57;;;8.30;;
9667;SDS011;4872;48.316;10.650;2024-01-30T09:24:38;8.63;;;7.60;;
9667;SDS011;4872;48.316;10.650;2024-01-30T09:27:07;9.63;;;7.30;;
9667;SDS011;4872;48.316;10.650;2024-01-30T09:29:33;8.70;;;7.63;;
9667;SDS011;4872;48.316;10.650;2024-01-30T09:32:01;8.33;;;7.40;;
9667;SDS011;4872;48.316;10.650;2024-01-30T09:34:28;8.73;;;7.77;;
9667;SDS011;4872;48.316;10.650;2024-01-30T09:36:54;10.13;;;7.97;;
9667;SDS011;4872;48.316;10.650;2024-01-30T09:39:21;9.03;;;7.83;;
9667;SDS011;4872;48.316;10.650;2024-01-30T09:41:52;8.73;;;7.13;;
9667;SDS011;4872;48.316;10.650;2024-01-30T09:44:25;7.73;;;6.57;;
9667;SDS011;4872;48.316;10.650;2024-01-30T09:46:55;9.27;;;6.70;;
9667;SDS011;4872;48.316;10.650;2024-01-30T09:49:23;8.20;;;6.73;;
9667;SDS011;4872;48.316;10.650;2024-01-30T09:51:52;7.13;;;6.37;;
9667;SDS011;4872;48.316;10.650;2024-01-30T09:54:20;7.63;;;6.83;;
9667;SDS011;4872;48.316;10.650;2024-01-30T09:56:48;6.90;;;6.10;;
9667;SDS011;4872;48.316;10.650;2024-01-30T09:59:16;6.83;;;5.87;;
9667;SDS011;4872;48.316;10.650;2024-01-30T10:01:42;7.47;;;6.40;;
9667;SDS011;4872;48.316;10.650;2024-01-30T10:04:10;7.23;;;6.53;;
9667;SDS011;4872;48.316;10.650;2024-01-30T10:06:37;9.67;;;7.50;;
9667;SDS011;4872;48.316;10.650;2024-01-30T10:09:04;8.37;;;6.70;;
9667;SDS011;4872;48.316;10.650;2024-01-30T10:11:31;7.57;;;6.70;;
9667;SDS011;4872;48.316;10.650;2024-01-30T10:13:59;8.43;;;6.63;;
9667;SDS011;4872;48.316;10.650;2024-01-30T10:16:26;7.80;;;6.93;;
9667;SDS011;4872;48.316;10.650;2024-01-30T10:18:53;7.90;;;6.50;;
9667;SDS011;4872;48.316;10.650;2024-01-30T10:21:20;9.77;;;6.93;;
9667;SDS011;4872;48.316;10.650;2024-01-30T10:23:47;7.80;;;6.53;;
9667;SDS011;4872;48.316;10.650;2024-01-30T10:26:15;7.07;;;6.13;;
9667;SDS011;4872;48.316;10.650;2024-01-30T10:28:42;11.60;;;6.80;;
9667;SDS011;4872;48.316;10.650;2024-01-30T10:31:09;10.50;;;7.77;;
9667;SDS011;4872;48.316;10.650;2024-01-30T10:33:36;7.50;;;6.17;;
9667;SDS011;4872;48.316;10.650;2024-01-30T10:36:04;7.83;;;6.90;;
9667;SDS011;4872;48.316;10.650;2024-01-30T10:38:31;10.00;;;8.10;;
9667;SDS011;4872;48.316;10.650;2024-01-30T10:40:59;8.17;;;7.23;;
9667;SDS011;4872;48.316;10.650;2024-01-30T10:43:29;8.30;;;7.30;;
9667;SDS011;4872;48.316;10.650;2024-01-30T10:46:01;7.60;;;6.67;;
9667;SDS011;4872;48.316;10.650;2024-01-30T10:48:36;8.37;;;6.70;;
9667;SDS011;4872;48.316;10.650;2024-01-30T10:51:09;7.37;;;6.67;;
9667;SDS011;4872;48.316;10.650;2024-01-30T10:53:38;6.87;;;6.17;;
9667;SDS011;4872;48.316;10.650;2024-01-30T10:56:06;7.47;;;6.33;;
9667;SDS011;4872;48.316;10.650;2024-01-30T10:58:34;7.70;;;5.87;;
9667;SDS011;4872;48.316;10.650;2024-01-30T11:01:01;7.57;;;6.73;;
9667;SDS011;4872;48.316;10.650;2024-01-30T11:03:29;6.53;;;5.93;;
9667;SDS011;4872;48.316;10.650;2024-01-30T11:05:59;7.80;;;5.77;;
9667;SDS011;4872;48.316;10.650;2024-01-30T11:08:26;8.73;;;6.30;;
9667;SDS011;4872;48.316;10.650;2024-01-30T11:10:55;8.00;;;6.37;;
9667;SDS011;4872;48.316;10.650;2024-01-30T11:13:22;7.27;;;6.00;;
9667;SDS011;4872;48.316;10.650;2024-01-30T11:15:52;7.07;;;6.30;;
9667;SDS011;4872;48.316;10.650;2024-01-30T11:18:22;7.63;;;6.47;;
9667;SDS011;4872;48.316;10.650;2024-01-30T11:20:50;7.77;;;6.60;;
9667;SDS011;4872;48.316;10.650;2024-01-30T11:23:18;8.57;;;7.20;;
9667;SDS011;4872;48.316;10.650;2024-01-30T11:25:48;10.97;;;7.53;;
9667;SDS011;4872;48.316;10.650;2024-01-30T11:28:15;8.23;;;6.77;;
9667;SDS011;4872;48.316;10.650;2024-01-30T11:30:42;8.07;;;7.27;;
9667;SDS011;4872;48.316;10.650;2024-01-30T11:33:09;8.10;;;6.87;;
9667;SDS011;4872;48.316;10.650;2024-01-30T11:35:38;10.07;;;7.43;;
9667;SDS011;4872;48.316;10.650;2024-01-30T11:38:06;9.50;;;7.07;;
9667;SDS011;4872;48.316;10.650;2024-01-30T11:40:35;8.83;;;7.67;;
9667;SDS011;4872;48.316;10.650;2024-01-30T11:43:03;7.87;;;6.80;;
9667;SDS011;4872;48.316;10.650;2024-01-30T11:45:33;7.87;;;6.83;;
9667;SDS011;4872;48.316;10.650;2024-01-30T11:48:00;7.50;;;6.37;;
9667;SDS011;4872;48.316;10.650;2024-01-30T11:50:28;7.13;;;6.43;;
9667;SDS011;4872;48.316;10.650;2024-01-30T11:52:55;7.10;;;5.80;;
9667;SDS011;4872;48.316;10.650;2024-01-30T11:55:23;10.07;;;6.60;;
9667;SDS011;4872;48.316;10.650;2024-01-30T11:57:51;7.30;;;6.40;;
9667;SDS011;4872;48.316;10.650;2024-01-30T12:00:21;8.40;;;6.77;;
9667;SDS011;4872;48.316;10.650;2024-01-30T12:02:48;6.93;;;6.30;;
9667;SDS011;4872;48.316;10.650;2024-01-30T12:05:16;8.03;;;6.67;;
9667;SDS011;4872;48.316;10.650;2024-01-30T12:07:44;7.63;;;6.60;;
9667;SDS011;4872;48.316;10.650;2024-01-30T12:10:12;6.43;;;5.83;;
9667;SDS011;4872;48.316;10.650;2024-01-30T12:12:40;7.20;;;6.17;;
9667;SDS011;4872;48.316;10.650;2024-01-30T12:15:10;9.50;;;6.90;;
9667;SDS011;4872;48.316;10.650;2024-01-30T12:17:37;9.40;;;7.23;;
9667;SDS011;4872;48.316;10.650;2024-01-30T12:20:04;8.00;;;6.53;;
9667;SDS011;4872;48.316;10.650;2024-01-30T12:22:32;8.60;;;7.00;;
9667;SDS011;4872;48.316;10.650;2024-01-30T12:25:00;13.30;;;8.13;;
9667;SDS011;4872;48.316;10.650;2024-01-30T12:27:26;9.77;;;7.20;;
9667;SDS011;4872;48.316;10.650;2024-01-30T12:29:57;9.93;;;7.97;;
9667;SDS011;4872;48.316;10.650;2024-01-30T12:32:25;9.20;;;7.90;;
9667;SDS011;4872;48.316;10.650;2024-01-30T12:34:54;7.23;;;6.10;;
9667;SDS011;4872;48.316;10.650;2024-01-30T12:37:21;10.30;;;6.20;;
9667;SDS011;4872;48.316;10.650;2024-01-30T12:39:49;6.33;;;5.67;;
9667;SDS011;4872;48.316;10.650;2024-01-30T12:42:17;7.23;;;6.50;;
9667;SDS011;4872;48.316;10.650;2024-01-30T12:44:45;6.47;;;5.87;;
9667;SDS011;4872;48.316;10.650;2024-01-30T12:47:12;6.47;;;5.00;;
9667;SDS011;4872;48.316;10.650;2024-01-30T12:49:42;7.13;;;5.37;;
9667;SDS011;4872;48.316;10.650;2024-01-30T12:52:09;5.43;;;4.93;;
9667;SDS011;4872;48.316;10.650;2024-01-30T12:54:36;6.33;;;5.30;;
9667;SDS011;4872;48.316;10.650;2024-01-30T12:57:04;10.07;;;6.40;;
9667;SDS011;4872;48.316;10.650;2024-01-30T12:59:31;6.10;;;5.23;;
9667;SDS011;4872;48.316;10.650;2024-01-30T13:01:58;6.73;;;5.53;;
9667;SDS011;4872;48.316;10.650;2024-01-30T13:04:26;7.57;;;5.30;;
9667;SDS011;4872;48.316;10.650;2024-01-30T13:06:55;6.20;;;5.53;;
9667;SDS011;4872;48.316;10.650;2024-01-30T13:09:22;7.53;;;5.70;;
9667;SDS011;4872;48.316;10.650;2024-01-30T13:11:49;6.60;;;5.27;;
9667;SDS011;4872;48.316;10.650;2024-01-30T13:14:16;7.63;;;5.47;;
9667;SDS011;4872;48.316;10.650;2024-01-30T13:16:43;7.03;;;5.27;;
9667;SDS011;4872;48.316;10.650;2024-01-30T13:19:10;6.90;;;5.03;;
9667;SDS011;4872;48.316;10.650;2024-01-30T13:21:37;5.73;;;4.77;;
9667;SDS011;4872;48.316;10.650;2024-01-30T13:24:06;6.17;;;4.10;;
9667;SDS011;4872;48.316;10.650;2024-01-30T13:26:32;4.93;;;3.73;;
9667;SDS011;4872;48.316;10.650;2024-01-30T13:28:59;5.83;;;4.27;;
9667;SDS011;4872;48.316;10.650;2024-01-30T13:31:26;7.53;;;4.30;;
9667;SDS011;4872;48.316;10.650;2024-01-30T13:33:53;6.47;;;5.50;;
9667;SDS011;4872;48.316;10.650;2024-01-30T13:36:20;5.43;;;4.23;;
9667;SDS011;4872;48.316;10.650;2024-01-30T13:38:47;5.50;;;3.90;;
9667;SDS011;4872;48.316;10.650;2024-01-30T13:41:15;6.20;;;4.43;;
9667;SDS011;4872;48.316;10.650;2024-01-30T13:43:43;4.00;;;3.60;;
9667;SDS011;4872;48.316;10.650;2024-01-30T13:46:10;5.17;;;3.47;;
9667;SDS011;4872;48.316;10.650;2024-01-30T13:48:36;4.60;;;2.97;;
9667;SDS011;4872;48.316;10.650;2024-01-30T13:51:03;4.87;;;3.37;;
9667;SDS011;4872;48.316;10.650;2024-01-30T13:53:30;4.67;;;3.30;;
9667;SDS011;4872;48.316;10.650;2024-01-30T13:55:57;7.47;;;5.83;;
9667;SDS011;4872;48.316;10.650;2024-01-30T13:58:26;5.93;;;4.70;;
9667;SDS011;4872;48.316;10.650;2024-01-30T14:00:52;3.30;;;2.90;;
9667;SDS011;4872;48.316;10.650;2024-01-30T14:03:20;7.20;;;3.70;;
9667;SDS011;4872;48.316;10.650;2024-01-30T14:05:46;4.73;;;3.37;;
9667;SDS011;4872;48.316;10.650;2024-01-30T14:08:13;5.03;;;4.50;;
9667;SDS011;4872;48.316;10.650;2024-01-30T14:10:41;4.93;;;3.77;;
9667;SDS011;4872;48.316;10.650;2024-01-30T14:13:07;8.90;;;8.00;;
9667;SDS011;4872;48.316;10.650;2024-01-30T14:15:35;4.87;;;4.33;;
9667;SDS011;4872;48.316;10.650;2024-01-30T14:18:02;4.43;;;3.03;;
9667;SDS011;4872;48.316;10.650;2024-01-30T14:20:29;6.37;;;4.90;;
9667;SDS011;4872;48.316;10.650;2024-01-30T14:22:56;3.13;;;2.77;;
9667;SDS011;4872;48.316;10.650;2024-01-30T14:25:24;3.80;;;2.80;;
9667;SDS011;4872;48.316;10.650;2024-01-30T14:27:50;3.33;;;2.80;;
9667;SDS011;4872;48.316;10.650;2024-01-30T14:30:18;3.93;;;2.63;;
9667;SDS011;4872;48.316;10.650;2024-01-30T14:32:46;4.27;;;3.20;;
9667;SDS011;4872;48.316;10.650;2024-01-30T14:35:13;5.70;;;2.97;;
9667;SDS011;4872;48.316;10.650;2024-01-30T14:37:40;6.37;;;3.70;;
9667;SDS011;4872;48.316;10.650;2024-01-30T14:40:07;7.70;;;5.20;;
9667;SDS011;4872;48.316;10.650;2024-01-30T14:42:35;7.73;;;5.20;;
9667;SDS011;4872;48.316;10.650;2024-01-30T14:45:02;6.33;;;4.50;;
9667;SDS011;4872;48.316;10.650;2024-01-30T14:47:29;6.97;;;5.03;;
9667;SDS011;4872;48.316;10.650;2024-01-30T14:49:58;6.93;;;4.60;;
9667;SDS011;4872;48.316;10.650;2024-01-30T14:52:24;5.60;;;4.13;;
9667;SDS011;4872;48.316;10.650;2024-01-30T14:54:51;6.03;;;4.30;;
9667;SDS011;4872;48.316;10.650;2024-01-30T14:57:18;5.43;;;4.43;;
9667;SDS011;4872;48.316;10.650;2024-01-30T14:59:45;4.37;;;3.50;;
9667;SDS011;4872;48.316;10.650;2024-01-30T15:02:13;5.13;;;3.53;;
9667;SDS011;4872;48.316;10.650;2024-01-30T15:04:40;5.33;;;3.87;;
9667;SDS011;4872;48.316;10.650;2024-01-30T15:07:08;5.87;;;3.70;;
9667;SDS011;4872;48.316;10.650;2024-01-30T15:09:35;7.13;;;4.90;;
9667;SDS011;4872;48.316;10.650;2024-01-30T15:12:02;7.27;;;4.87;;
9667;SDS011;4872;48.316;10.650;2024-01-30T15:14:29;7.60;;;6.03;;
9667;SDS011;4872;48.316;10.650;2024-01-30T15:16:56;9.07;;;6.10;;
9667;SDS011;4872;48.316;10.650;2024-01-30T15:19:23;7.37;;;5.97;;
9667;SDS011;4872;48.316;10.650;2024-01-30T15:21:50;8.73;;;5.13;;
9667;SDS011;4872;48.316;10.650;2024-01-30T15:24:18;9.27;;;5.70;;
9667;SDS011;4872;48.316;10.650;2024-01-30T15:26:49;6.77;;;5.70;;
9667;SDS011;4872;48.316;10.650;2024-01-30T15:29:16;7.10;;;5.43;;
9667;SDS011;4872;48.316;10.650;2024-01-30T15:31:43;12.77;;;9.90;;
9667;SDS011;4872;48.316;10.650;2024-01-30T15:34:09;8.20;;;7.00;;
9667;SDS011;4872;48.316;10.650;2024-01-30T15:36:36;8.83;;;6.20;;
9667;SDS011;4872;48.316;10.650;2024-01-30T15:39:03;7.03;;;4.97;;
9667;SDS011;4872;48.316;10.650;2024-01-30T15:41:31;7.60;;;6.00;;
9667;SDS011;4872;48.316;10.650;2024-01-30T15:43:58;9.13;;;8.13;;
9667;SDS011;4872;48.316;10.650;2024-01-30T15:46:27;8.63;;;6.50;;
9667;SDS011;4872;48.316;10.650;2024-01-30T15:48:54;8.93;;;8.03;;
9667;SDS011;4872;48.316;10.650;2024-01-30T15:51:20;9.93;;;6.80;;
9667;SDS011;4872;48.316;10.650;2024-01-30T15:53:47;8.43;;;6.63;;
9667;SDS011;4872;48.316;10.650;2024-01-30T15:56:14;9.70;;;7.27;;
9667;SDS011;4872;48.316;10.650;2024-01-30T15:58:42;18.90;;;14.33;;
9667;SDS011;4872;48.316;10.650;2024-01-30T16:01:14;9.07;;;7.33;;
9667;SDS011;4872;48.316;10.650;2024-01-30T16:03:41;9.80;;;7.10;;
9667;SDS011;4872;48.316;10.650;2024-01-30T16:06:09;9.77;;;8.03;;
9667;SDS011;4872;48.316;10.650;2024-01-30T16:08:36;25.60;;;20.27;;
9667;SDS011;4872;48.316;10.650;2024-01-30T16:11:03;17.47;;;13.17;;
9667;SDS011;4872;48.316;10.650;2024-01-30T16:13:30;27.07;;;18.60;;
9667;SDS011;4872;48.316;10.650;2024-01-30T16:15:58;19.33;;;13.20;;
9667;SDS011;4872;48.316;10.650;2024-01-30T16:18:25;16.87;;;12.50;;
9667;SDS011;4872;48.316;10.650;2024-01-30T16:20:56;21.33;;;14.43;;
9667;SDS011;4872;48.316;10.650;2024-01-30T16:23:22;21.10;;;14.10;;
9667;SDS011;4872;48.316;10.650;2024-01-30T16:25:50;15.67;;;14.07;;
9667;SDS011;4872;48.316;10.650;2024-01-30T16:28:16;14.00;;;12.57;;
9667;SDS011;4872;48.316;10.650;2024-01-30T16:30:43;13.00;;;11.70;;
9667;SDS011;4872;48.316;10.650;2024-01-30T16:33:11;16.57;;;14.87;;
9667;SDS011;4872;48.316;10.650;2024-01-30T16:35:38;17.33;;;14.13;;
9667;SDS011;4872;48.316;10.650;2024-01-30T16:38:06;18.23;;;15.13;;
9667;SDS011;4872;48.316;10.650;2024-01-30T16:40:33;9.53;;;8.53;;
9667;SDS011;4872;48.316;10.650;2024-01-30T16:43:00;11.20;;;8.43;;
9667;SDS011;4872;48.316;10.650;2024-01-30T16:45:26;9.93;;;8.33;;
9667;SDS011;4872;48.316;10.650;2024-01-30T16:47:53;11.47;;;8.87;;
9667;SDS011;4872;48.316;10.650;2024-01-30T16:50:22;12.43;;;9.27;;
9667;SDS011;4872;48.316;10.650;2024-01-30T16:52:48;12.83;;;9.30;;
9667;SDS011;4872;48.316;10.650;2024-01-30T16:55:15;29.33;;;17.63;;
9667;SDS011;4872;48.316;10.650;2024-01-30T16:57:43;18.73;;;13.17;;
9667;SDS011;4872;48.316;10.650;2024-01-30T17:00:11;19.40;;;15.17;;
9667;SDS011;4872;48.316;10.650;2024-01-30T17:02:39;16.70;;;12.13;;
9667;SDS011;4872;48.316;10.650;2024-01-30T17:05:07;14.50;;;11.73;;
9667;SDS011;4872;48.316;10.650;2024-01-30T17:07:35;14.57;;;11.03;;
9667;SDS011;4872;48.316;10.650;2024-01-30T17:10:02;13.27;;;10.30;;
9667;SDS011;4872;48.316;10.650;2024-01-30T17:12:35;13.60;;;11.60;;
9667;SDS011;4872;48.316;10.650;2024-01-30T17:15:02;17.07;;;11.73;;
9667;SDS011;4872;48.316;10.650;2024-01-30T17:17:34;13.83;;;11.40;;
9667;SDS011;4872;48.316;10.650;2024-01-30T17:20:01;13.93;;;10.37;;
9667;SDS011;4872;48.316;10.650;2024-01-30T17:22:29;11.43;;;9.53;;
9667;SDS011;4872;48.316;10.650;2024-01-30T17:24:57;11.60;;;8.77;;
9667;SDS011;4872;48.316;10.650;2024-01-30T17:27:23;9.97;;;7.67;;
9667;SDS011;4872;48.316;10.650;2024-01-30T17:29:50;8.37;;;7.57;;
9667;SDS011;4872;48.316;10.650;2024-01-30T17:32:16;9.30;;;8.30;;
9667;SDS011;4872;48.316;10.650;2024-01-30T17:34:45;10.57;;;8.27;;
9667;SDS011;4872;48.316;10.650;2024-01-30T17:37:12;11.00;;;8.27;;
9667;SDS011;4872;48.316;10.650;2024-01-30T17:39:38;10.63;;;8.53;;
9667;SDS011;4872;48.316;10.650;2024-01-30T17:42:07;6.67;;;6.00;;
9667;SDS011;4872;48.316;10.650;2024-01-30T17:44:33;9.90;;;7.03;;
9667;SDS011;4872;48.316;10.650;2024-01-30T17:47:05;9.27;;;6.97;;
9667;SDS011;4872;48.316;10.650;2024-01-30T17:49:32;10.47;;;7.03;;
9667;SDS011;4872;48.316;10.650;2024-01-30T17:51:59;10.03;;;7.30;;
9667;SDS011;4872;48.316;10.650;2024-01-30T17:54:28;11.37;;;8.00;;
9667;SDS011;4872;48.316;10.650;2024-01-30T17:56:55;10.53;;;7.43;;
9667;SDS011;4872;48.316;10.650;2024-01-30T17:59:23;7.83;;;7.03;;
9667;SDS011;4872;48.316;10.650;2024-01-30T18:01:50;8.20;;;6.50;;
9667;SDS011;4872;48.316;10.650;2024-01-30T18:04:17;8.03;;;6.30;;
9667;SDS011;4872;48.316;10.650;2024-01-30T18:06:48;8.03;;;6.23;;
9667;SDS011;4872;48.316;10.650;2024-01-30T18:09:15;9.33;;;6.53;;
9667;SDS011;4872;48.316;10.650;2024-01-30T18:11:42;10.90;;;7.20;;
9667;SDS011;4872;48.316;10.650;2024-01-30T18:14:08;8.27;;;6.90;;
9667;SDS011;4872;48.316;10.650;2024-01-30T18:16:36;7.17;;;6.30;;
9667;SDS011;4872;48.316;10.650;2024-01-30T18:19:03;11.50;;;8.80;;
9667;SDS011;4872;48.316;10.650;2024-01-30T18:21:30;19.40;;;14.03;;
9667;SDS011;4872;48.316;10.650;2024-01-30T18:23:57;19.00;;;13.67;;
9667;SDS011;4872;48.316;10.650;2024-01-30T18:26:23;21.73;;;15.33;;
9667;SDS011;4872;48.316;10.650;2024-01-30T18:28:51;26.37;;;18.60;;
9667;SDS011;4872;48.316;10.650;2024-01-30T18:31:20;29.93;;;21.00;;
9667;SDS011;4872;48.316;10.650;2024-01-30T18:33:49;14.70;;;11.23;;
9667;SDS011;4872;48.316;10.650;2024-01-30T18:36:17;13.57;;;9.47;;
9667;SDS011;4872;48.316;10.650;2024-01-30T18:38:43;13.07;;;8.87;;
9667;SDS011;4872;48.316;10.650;2024-01-30T18:41:10;14.17;;;8.20;;
9667;SDS011;4872;48.316;10.650;2024-01-30T18:43:37;16.97;;;12.20;;
9667;SDS011;4872;48.316;10.650;2024-01-30T18:46:04;17.60;;;10.97;;
9667;SDS011;4872;48.316;10.650;2024-01-30T18:48:30;9.00;;;6.77;;
9667;SDS011;4872;48.316;10.650;2024-01-30T18:50:59;8.57;;;7.13;;
9667;SDS011;4872;48.316;10.650;2024-01-30T18:53:26;9.10;;;8.13;;
9667;SDS011;4872;48.316;10.650;2024-01-30T18:55:52;11.00;;;8.73;;
9667;SDS011;4872;48.316;10.650;2024-01-30T18:58:19;9.70;;;8.00;;
9667;SDS011;4872;48.316;10.650;2024-01-30T19:00:46;10.73;;;7.83;;
9667;SDS011;4872;48.316;10.650;2024-01-30T19:03:13;10.40;;;7.63;;
9667;SDS011;4872;48.316;10.650;2024-01-30T19:05:41;8.57;;;7.33;;
9667;SDS011;4872;48.316;10.650;2024-01-30T19:08:09;9.80;;;6.97;;
9667;SDS011;4872;48.316;10.650;2024-01-30T19:10:37;10.57;;;7.83;;
9667;SDS011;4872;48.316;10.650;2024-01-30T19:13:03;10.13;;;7.83;;
9667;SDS011;4872;48.316;10.650;2024-01-30T19:15:31;10.27;;;8.33;;
9667;SDS011;4872;48.316;10.650;2024-01-30T19:17:57;14.33;;;11.03;;
9667;SDS011;4872;48.316;10.650;2024-01-30T19:20:25;13.37;;;11.30;;
9667;SDS011;4872;48.316;10.650;2024-01-30T19:22:51;16.67;;;11.33;;
9667;SDS011;4872;48.316;10.650;2024-01-30T19:25:20;17.63;;;12.30;;
9667;SDS011;4872;48.316;10.650;2024-01-30T19:27:46;14.70;;;11.93;;
9667;SDS011;4872;48.316;10.650;2024-01-30T19:30:14;13.73;;;10.70;;
9667;SDS011;4872;48.316;10.650;2024-01-30T19:32:41;12.57;;;10.47;;
9667;SDS011;4872;48.316;10.650;2024-01-30T19:35:07;12.70;;;10.57;;
9667;SDS011;4872;48.316;10.650;2024-01-30T19:37:34;15.37;;;11.93;;
9667;SDS011;4872;48.316;10.650;2024-01-30T19:40:02;22.50;;;15.33;;
9667;SDS011;4872;48.316;10.650;2024-01-30T19:42:31;20.27;;;14.13;;
9667;SDS011;4872;48.316;10.650;2024-01-30T19:44:59;25.70;;;19.13;;
9667;SDS011;4872;48.316;10.650;2024-01-30T19:47:26;27.10;;;18.70;;
9667;SDS011;4872;48.316;10.650;2024-01-30T19:49:52;72.37;;;45.57;;
9667;SDS011;4872;48.316;10.650;2024-01-30T19:52:19;35.23;;;25.13;;
9667;SDS011;4872;48.316;10.650;2024-01-30T19:54:46;49.53;;;30.47;;
9667;SDS011;4872;48.316;10.650;2024-01-30T19:57:13;40.30;;;27.80;;